Terminal Aerodrome Forecast
Issued by NWS Paducah, KY

Home | Current Version | Previous Version | Text Only | Print | Product List | Glossary On
Versions: 1 2 3 4 5 6 7 8 9 10 11 12 13 14 15 16 17 18 19 20 21
585
FTUS43 KPAH 300934 AAB
TAFEVV
TAF AMD
KEVV 300934Z 3010/3106 00000KT 3SM BR SCT250
      TEMPO 3010/3012 1/4SM FG VV002
     FM301500 27008KT P6SM SKC=

USA.gov is the U.S. government's official web portal to all federal, state and local government web resources and services.